Time;durP1;ratioP1;P1;durP2;ratioP2;P2;SDS_P1;SDS_P2;PMS_P1;PMS_P2;Temp;Humidity;BMP_temperature;BMP_pressure;BME280_temperature;BME280_humidity;BME280_pressure;Samples;Min_cycle;Max_cycle;Signal;HPM_P1;HPM_P2
2021/10/29 00:00:09;;;;;;;75.35;32.17;;;7.00;99.90;;;;;;5067073;28;20101;-70
2021/10/29 00:02:36;;;;;;;64.25;30.92;;;7.00;99.90;;;;;;5064431;28;20052;-69
2021/10/29 00:05:04;;;;;;;72.90;32.72;;;7.00;99.90;;;;;;5066558;28;20056;-69
2021/10/29 00:07:31;;;;;;;68.00;31.05;;;7.00;99.90;;;;;;5067630;28;20053;-72
2021/10/29 00:09:59;;;;;;;71.55;30.55;;;7.00;99.90;;;;;;5066324;28;20108;-71
2021/10/29 00:12:26;;;;;;;69.50;31.02;;;7.10;99.90;;;;;;5067314;28;20109;-71
2021/10/29 00:14:54;;;;;;;65.60;29.88;;;7.10;99.90;;;;;;5066155;28;20136;-70
2021/10/29 00:17:22;;;;;;;64.80;28.23;;;6.90;99.90;;;;;;5056643;28;20060;-70
2021/10/29 00:19:49;;;;;;;68.32;28.95;;;7.00;99.90;;;;;;5052898;28;20479;-71
2021/10/29 00:22:17;;;;;;;63.33;29.75;;;7.00;99.90;;;;;;5051875;28;20098;-71
2021/10/29 00:24:44;;;;;;;64.22;30.23;;;6.90;99.90;;;;;;5052649;28;20049;-70
2021/10/29 00:27:11;;;;;;;63.13;27.98;;;6.90;99.90;;;;;;5052156;28;20057;-71
2021/10/29 00:29:38;;;;;;;65.72;29.50;;;6.80;99.90;;;;;;5051899;28;20447;-71
2021/10/29 00:32:08;;;;;;;64.60;28.88;;;6.90;99.90;;;;;;5057159;28;20056;-71
2021/10/29 00:34:35;;;;;;;66.63;29.17;;;6.90;99.90;;;;;;5053307;28;20059;-71
2021/10/29 00:37:03;;;;;;;62.85;30.42;;;6.90;99.90;;;;;;5052938;28;20053;-71
2021/10/29 00:39:30;;;;;;;67.95;31.33;;;6.90;99.90;;;;;;5055043;28;20487;-71
2021/10/29 00:41:57;;;;;;;70.35;30.60;;;7.00;99.90;;;;;;5055083;28;20490;-71
2021/10/29 00:44:25;;;;;;;73.90;31.45;;;7.00;99.90;;;;;;5055398;28;20500;-71
2021/10/29 00:46:53;;;;;;;68.65;30.65;;;7.00;99.90;;;;;;5053586;28;20055;-70
2021/10/29 00:49:22;;;;;;;63.58;30.45;;;7.00;99.90;;;;;;5054086;28;20421;-73
2021/10/29 00:51:49;;;;;;;68.40;30.02;;;7.00;99.90;;;;;;5054527;28;20178;-71
2021/10/29 00:54:17;;;;;;;62.40;28.92;;;7.00;99.90;;;;;;5054439;28;20052;-70
2021/10/29 00:56:46;;;;;;;68.40;30.40;;;7.10;99.90;;;;;;5053351;28;20045;-70
2021/10/29 00:59:13;;;;;;;57.92;29.38;;;7.10;99.90;;;;;;5052791;28;20051;-71
2021/10/29 01:01:40;;;;;;;64.40;29.48;;;7.10;99.90;;;;;;5053186;28;20242;-70
2021/10/29 01:04:08;;;;;;;68.05;30.63;;;7.10;99.90;;;;;;5053499;28;20060;-70
2021/10/29 01:06:36;;;;;;;68.10;30.38;;;7.00;99.90;;;;;;5052960;28;20101;-72
2021/10/29 01:09:04;;;;;;;58.28;29.08;;;7.00;99.90;;;;;;5053491;28;20052;-70
2021/10/29 01:11:33;;;;;;;71.10;31.20;;;7.00;99.90;;;;;;5052874;28;20465;-70
2021/10/29 01:14:00;;;;;;;65.07;28.70;;;7.00;99.90;;;;;;5053460;28;20051;-71
2021/10/29 01:16:27;;;;;;;63.40;29.30;;;7.00;99.90;;;;;;5051205;28;20078;-71
2021/10/29 01:18:54;;;;;;;62.70;29.15;;;6.90;99.90;;;;;;5051612;28;20132;-70
2021/10/29 01:21:22;;;;;;;67.07;29.88;;;7.10;99.90;;;;;;5052122;28;20068;-70
2021/10/29 01:23:50;;;;;;;64.10;29.17;;;7.00;99.90;;;;;;5052344;28;20791;-71
2021/10/29 01:26:18;;;;;;;67.68;30.95;;;6.90;99.90;;;;;;5052912;28;20394;-70
2021/10/29 01:28:46;;;;;;;66.90;31.02;;;7.00;99.90;;;;;;5051901;28;20322;-70
2021/10/29 01:31:13;;;;;;;65.45;30.85;;;6.90;99.90;;;;;;5053194;28;20052;-70
2021/10/29 01:33:40;;;;;;;68.90;30.60;;;7.00;99.90;;;;;;5052884;28;20128;-71
2021/10/29 01:36:08;;;;;;;72.45;31.38;;;7.00;99.90;;;;;;5051866;28;20106;-70
2021/10/29 01:38:38;;;;;;;73.15;31.58;;;6.90;99.90;;;;;;5052160;28;20067;-70
2021/10/29 01:41:06;;;;;;;69.55;31.80;;;6.90;99.90;;;;;;5053739;28;20087;-69
2021/10/29 01:43:39;;;;;;;67.53;29.92;;;6.90;99.90;;;;;;5053274;28;20053;-69
2021/10/29 01:46:06;;;;;;;66.30;28.85;;;6.90;99.90;;;;;;5052561;28;20471;-70
2021/10/29 01:48:33;;;;;;;68.25;28.25;;;6.80;99.90;;;;;;5052224;28;20052;-70
2021/10/29 01:51:00;;;;;;;63.17;28.92;;;6.70;99.90;;;;;;5054359;28;20044;-71
2021/10/29 01:53:28;;;;;;;62.42;29.60;;;6.80;99.90;;;;;;5052007;28;20059;-71
2021/10/29 01:55:58;;;;;;;69.03;29.50;;;6.80;99.90;;;;;;5051871;28;20070;-71
2021/10/29 01:58:25;;;;;;;63.78;29.55;;;6.90;99.90;;;;;;5052978;28;20052;-71
2021/10/29 02:00:52;;;;;;;69.72;29.98;;;6.90;99.90;;;;;;5052292;28;20173;-71
2021/10/29 02:03:19;;;;;;;68.65;30.80;;;6.90;99.90;;;;;;5052979;28;20049;-71
2021/10/29 02:05:46;;;;;;;70.85;29.08;;;6.90;99.90;;;;;;5051263;28;20053;-70
2021/10/29 02:08:13;;;;;;;68.57;29.13;;;6.80;99.90;;;;;;5053294;28;20049;-71
2021/10/29 02:10:41;;;;;;;75.32;30.55;;;6.70;99.90;;;;;;5052080;28;20106;-71
2021/10/29 02:13:09;;;;;;;62.70;28.52;;;6.70;99.90;;;;;;5054086;28;20440;-71
2021/10/29 02:15:36;;;;;;;71.80;31.92;;;6.70;99.90;;;;;;5051305;28;20098;-71
2021/10/29 02:18:03;;;;;;;66.43;29.05;;;6.60;99.90;;;;;;5049618;28;20044;-72
2021/10/29 02:20:30;;;;;;;71.82;30.67;;;6.70;99.90;;;;;;5053761;28;20118;-71
2021/10/29 02:22:58;;;;;;;80.82;32.65;;;6.60;99.90;;;;;;5052077;28;20056;-71
2021/10/29 02:25:25;;;;;;;73.05;31.25;;;6.70;99.90;;;;;;5050062;28;20792;-70
2021/10/29 02:27:52;;;;;;;72.65;30.13;;;6.80;99.90;;;;;;5051431;28;20044;-72
2021/10/29 02:30:21;;;;;;;72.00;30.45;;;6.70;99.90;;;;;;5051899;28;20325;-70
2021/10/29 02:32:48;;;;;;;68.28;29.25;;;6.70;99.90;;;;;;5053272;28;20087;-71
2021/10/29 02:35:15;;;;;;;67.32;28.45;;;6.60;99.90;;;;;;5054219;28;20075;-70
2021/10/29 02:37:42;;;;;;;70.78;29.38;;;6.60;99.90;;;;;;5052082;28;20063;-74
2021/10/29 02:40:11;;;;;;;67.32;28.48;;;6.60;99.90;;;;;;5053591;28;20463;-73
2021/10/29 02:42:38;;;;;;;73.43;30.92;;;6.50;99.90;;;;;;5051821;28;20407;-70
2021/10/29 02:45:05;;;;;;;73.63;29.88;;;6.50;99.90;;;;;;5052746;28;20048;-71
2021/10/29 02:47:34;;;;;;;65.20;27.88;;;6.50;99.90;;;;;;5052017;28;20133;-71
2021/10/29 02:50:01;;;;;;;59.92;27.52;;;6.60;99.90;;;;;;5052638;28;20402;-70
2021/10/29 02:52:28;;;;;;;60.65;27.50;;;6.50;99.90;;;;;;5049639;28;20052;-71
2021/10/29 02:54:55;;;;;;;62.38;26.80;;;6.60;99.90;;;;;;5054542;28;20098;-71
2021/10/29 02:57:22;;;;;;;58.25;26.52;;;6.50;99.90;;;;;;5051471;28;20053;-71
2021/10/29 02:59:49;;;;;;;68.30;27.48;;;6.40;99.90;;;;;;5051645;28;20456;-71
2021/10/29 03:02:16;;;;;;;70.63;27.60;;;6.40;99.90;;;;;;5052641;28;20052;-71
2021/10/29 03:04:44;;;;;;;69.90;29.15;;;6.40;99.90;;;;;;5052009;28;20049;-74
2021/10/29 03:07:11;;;;;;;61.50;25.67;;;6.30;99.90;;;;;;5052671;28;20049;-71
2021/10/29 03:09:38;;;;;;;69.60;28.02;;;6.20;99.90;;;;;;5052186;28;20044;-71
2021/10/29 03:12:06;;;;;;;61.25;27.13;;;6.20;99.90;;;;;;5051689;28;20048;-71
2021/10/29 03:14:33;;;;;;;65.18;27.33;;;6.20;99.90;;;;;;5052565;28;20060;-71
2021/10/29 03:17:00;;;;;;;65.80;27.45;;;6.10;99.90;;;;;;5050519;28;20174;-71
2021/10/29 03:19:27;;;;;;;67.10;28.02;;;6.30;99.90;;;;;;5051753;28;20083;-72
2021/10/29 03:21:55;;;;;;;66.32;29.00;;;6.30;99.90;;;;;;5049568;28;20118;-71
2021/10/29 03:24:22;;;;;;;63.08;26.30;;;6.40;99.90;;;;;;5053609;28;20049;-74
2021/10/29 03:26:49;;;;;;;63.63;26.02;;;6.40;99.90;;;;;;5050435;28;20068;-71
2021/10/29 03:29:16;;;;;;;57.63;26.20;;;6.40;99.90;;;;;;5053597;28;20125;-71
2021/10/29 03:31:43;;;;;;;56.97;27.00;;;6.40;99.90;;;;;;5054866;28;20090;-70
2021/10/29 03:34:10;;;;;;;63.08;27.23;;;6.40;99.90;;;;;;5053691;28;20049;-70
2021/10/29 03:36:38;;;;;;;60.78;27.27;;;6.40;99.90;;;;;;5049762;28;20057;-70
2021/10/29 03:39:07;;;;;;;60.13;26.58;;;6.50;99.90;;;;;;5052692;28;20064;-69
2021/10/29 03:41:39;;;;;;;62.75;26.38;;;6.40;99.90;;;;;;5051111;28;20451;-70
2021/10/29 03:44:22;;;;;;;62.83;25.23;;;6.50;99.90;;;;;;5052030;28;20056;-70
2021/10/29 03:46:50;;;;;;;60.00;27.00;;;6.50;99.90;;;;;;5049806;28;20045;-70
2021/10/29 03:49:22;;;;;;;60.55;26.35;;;6.50;99.90;;;;;;5053799;28;20189;-70
2021/10/29 03:51:51;;;;;;;57.90;25.75;;;6.50;99.90;;;;;;5051571;28;20060;-71
2021/10/29 03:54:22;;;;;;;62.50;27.88;;;6.50;99.90;;;;;;5054388;28;20055;-71
2021/10/29 03:56:56;;;;;;;63.08;27.38;;;6.40;99.90;;;;;;5056211;28;20048;-71
2021/10/29 03:59:23;;;;;;;61.15;25.63;;;6.50;99.90;;;;;;5054527;28;20087;-70
2021/10/29 04:01:50;;;;;;;71.85;26.27;;;6.40;99.90;;;;;;5057133;28;20080;-71
2021/10/29 04:04:18;;;;;;;63.83;25.27;;;6.40;99.90;;;;;;5053844;28;20056;-71
2021/10/29 04:06:45;;;;;;;59.35;25.13;;;6.30;99.90;;;;;;5055740;28;20534;-70
2021/10/29 04:09:12;;;;;;;58.88;24.33;;;6.30;99.90;;;;;;5054666;28;20690;-70
2021/10/29 04:11:41;;;;;;;71.30;26.00;;;6.30;99.90;;;;;;5053901;28;20082;-70
2021/10/29 04:14:11;;;;;;;69.25;26.25;;;6.20;99.90;;;;;;5056395;28;20115;-70
2021/10/29 04:16:39;;;;;;;72.10;27.65;;;6.10;99.90;;;;;;5055689;28;20049;-71
2021/10/29 04:19:06;;;;;;;102.82;28.08;;;6.00;99.90;;;;;;5055709;28;20087;-71
2021/10/29 04:21:33;;;;;;;78.28;28.35;;;6.00;99.90;;;;;;5055644;28;20049;-71
2021/10/29 04:24:00;;;;;;;75.43;27.63;;;6.00;99.90;;;;;;5053919;28;20053;-72
2021/10/29 04:26:27;;;;;;;66.28;25.52;;;6.00;99.90;;;;;;5055509;28;20044;-72
2021/10/29 04:28:56;;;;;;;76.25;27.95;;;5.90;99.90;;;;;;5055610;28;20366;-72
2021/10/29 04:31:27;;;;;;;61.78;25.15;;;5.80;99.90;;;;;;5055024;28;20127;-71
2021/10/29 04:33:54;;;;;;;65.80;26.30;;;5.90;99.90;;;;;;5053071;28;20091;-71
2021/10/29 04:36:23;;;;;;;68.13;28.40;;;6.00;99.90;;;;;;5055980;28;20290;-74
2021/10/29 04:38:51;;;;;;;63.22;25.38;;;6.10;99.90;;;;;;5056745;28;20048;-72
2021/10/29 04:41:18;;;;;;;72.72;28.02;;;6.00;99.90;;;;;;5055563;28;20064;-71
2021/10/29 04:43:45;;;;;;;70.20;28.67;;;6.00;99.90;;;;;;5055901;28;20047;-71
2021/10/29 04:46:14;;;;;;;59.88;26.23;;;6.00;99.90;;;;;;5055773;28;20534;-71
2021/10/29 04:48:41;;;;;;;66.70;28.58;;;6.00;99.90;;;;;;5054516;28;20063;-71
2021/10/29 04:51:08;;;;;;;59.35;25.88;;;6.00;99.90;;;;;;5055809;28;20468;-71
2021/10/29 04:53:35;;;;;;;58.30;25.35;;;6.00;99.90;;;;;;5054128;28;20480;-72
2021/10/29 04:56:03;;;;;;;67.28;25.75;;;5.90;99.90;;;;;;5051489;28;20432;-72
2021/10/29 04:58:30;;;;;;;65.40;27.23;;;5.90;99.90;;;;;;5055492;28;20068;-71
2021/10/29 05:00:57;;;;;;;75.35;29.15;;;6.00;99.90;;;;;;5054147;28;20519;-70
2021/10/29 05:03:25;;;;;;;62.80;26.02;;;5.90;99.90;;;;;;5052223;28;20048;-71
2021/10/29 05:05:52;;;;;;;63.05;27.75;;;6.00;99.90;;;;;;5053879;28;20063;-70
2021/10/29 05:08:19;;;;;;;64.30;27.17;;;6.00;99.90;;;;;;5053914;28;20049;-71
2021/10/29 05:10:46;;;;;;;59.92;26.92;;;6.10;99.90;;;;;;5056392;28;20505;-74
2021/10/29 05:13:13;;;;;;;59.40;26.50;;;6.00;99.90;;;;;;5054385;28;20059;-70
2021/10/29 05:15:40;;;;;;;57.53;25.65;;;6.00;99.90;;;;;;5053554;28;20110;-72
2021/10/29 05:18:13;;;;;;;58.58;27.15;;;5.90;99.90;;;;;;5055074;28;20048;-70
2021/10/29 05:20:42;;;;;;;57.53;27.08;;;5.80;99.90;;;;;;5056516;28;20056;-70
2021/10/29 05:23:09;;;;;;;56.72;23.67;;;5.90;99.90;;;;;;5055748;28;20114;-71
2021/10/29 05:25:36;;;;;;;55.75;26.40;;;5.90;99.90;;;;;;5055005;28;20123;-71
2021/10/29 05:28:03;;;;;;;60.33;27.88;;;5.80;99.90;;;;;;5054832;28;20468;-70
2021/10/29 05:30:30;;;;;;;58.78;25.30;;;5.80;99.90;;;;;;5052830;28;20442;-71
2021/10/29 05:32:57;;;;;;;63.80;27.20;;;5.80;99.90;;;;;;5052415;28;20509;-71
2021/10/29 05:35:24;;;;;;;65.70;29.25;;;5.90;99.90;;;;;;5056074;28;20083;-70
2021/10/29 05:37:53;;;;;;;60.53;28.75;;;5.90;99.90;;;;;;5055887;28;20053;-69
2021/10/29 05:40:20;;;;;;;60.42;27.13;;;6.00;99.90;;;;;;5053878;28;20067;-70
2021/10/29 05:42:47;;;;;;;57.55;26.02;;;6.00;99.90;;;;;;5055922;28;20052;-71
2021/10/29 05:45:14;;;;;;;49.85;23.75;;;6.10;99.90;;;;;;5055098;28;20501;-70
2021/10/29 05:47:42;;;;;;;58.20;25.60;;;5.90;99.90;;;;;;5054660;28;20040;-71
2021/10/29 05:50:10;;;;;;;51.80;24.42;;;5.90;99.90;;;;;;5053695;28;20083;-71
2021/10/29 05:52:39;;;;;;;48.13;21.38;;;5.90;99.90;;;;;;5052390;28;20574;-70
2021/10/29 05:55:17;;;;;;;45.58;21.15;;;5.80;99.90;;;;;;5054304;28;20057;-71
2021/10/29 05:57:47;;;;;;;46.75;23.10;;;5.90;99.90;;;;;;5052615;28;20048;-72
2021/10/29 06:00:16;;;;;;;51.53;23.50;;;6.00;99.90;;;;;;5055305;28;20070;-71
2021/10/29 06:02:44;;;;;;;50.40;23.50;;;6.00;99.90;;;;;;5053197;28;20041;-72
2021/10/29 06:05:11;;;;;;;52.65;24.80;;;5.90;99.90;;;;;;5052443;28;20056;-71
2021/10/29 06:07:38;;;;;;;48.72;24.00;;;5.80;99.90;;;;;;5052802;28;20044;-71
2021/10/29 06:10:08;;;;;;;46.50;22.23;;;5.90;99.90;;;;;;5053244;28;20529;-71
2021/10/29 06:12:37;;;;;;;51.97;25.98;;;5.80;99.90;;;;;;5052552;28;20048;-71
2021/10/29 06:15:05;;;;;;;48.80;22.58;;;5.80;99.90;;;;;;5050979;28;20056;-70
2021/10/29 06:17:33;;;;;;;47.10;23.95;;;5.80;99.90;;;;;;5048425;28;20459;-72
2021/10/29 06:20:00;;;;;;;49.90;23.33;;;5.80;99.90;;;;;;5051970;28;20084;-71
2021/10/29 06:22:29;;;;;;;44.05;21.52;;;5.80;99.90;;;;;;5049572;28;20501;-71
2021/10/29 06:24:57;;;;;;;43.95;20.67;;;5.80;99.90;;;;;;5049315;28;20056;-71
2021/10/29 06:30:09;;;;;;;41.15;19.25;;;5.70;99.90;;;;;;5009920;28;20091;-72
2021/10/29 06:32:38;;;;;;;40.70;20.27;;;5.80;99.90;;;;;;5050571;28;20059;-71
2021/10/29 06:35:06;;;;;;;48.17;21.45;;;5.80;99.90;;;;;;5051185;28;20057;-72
2021/10/29 06:37:34;;;;;;;38.70;18.38;;;5.80;99.90;;;;;;5048866;28;20052;-71
2021/10/29 06:40:01;;;;;;;37.80;18.30;;;5.80;99.90;;;;;;5051094;28;20044;-71
2021/10/29 06:42:34;;;;;;;40.75;20.13;;;5.80;99.90;;;;;;5049744;28;20060;-72
2021/10/29 06:45:13;;;;;;;42.22;21.08;;;5.80;99.90;;;;;;5050928;28;20053;-71
2021/10/29 06:47:45;;;;;;;45.45;20.45;;;5.60;99.90;;;;;;5050493;28;20037;-72
2021/10/29 07:01:16;;;;;;;48.58;23.45;;;5.90;99.90;;;;;;5053007;28;20059;-70
2021/10/29 07:12:14;;;;;;;49.70;23.27;;;6.00;99.90;;;;;;5049464;28;20055;-71
2021/10/29 07:42:09;;;;;;;48.75;24.27;;;6.30;99.90;;;;;;5058971;28;20056;-71
2021/10/29 07:44:36;;;;;;;49.88;24.85;;;6.40;99.90;;;;;;5057735;28;20083;-71
2021/10/29 07:47:05;;;;;;;38.30;20.20;;;6.50;99.90;;;;;;5055198;28;20647;-71
2021/10/29 07:49:32;;;;;;;37.47;21.10;;;6.30;99.90;;;;;;5055804;28;20056;-71
2021/10/29 07:51:59;;;;;;;41.95;20.25;;;6.30;99.90;;;;;;5056366;28;20049;-71
2021/10/29 07:54:27;;;;;;;34.85;18.67;;;6.40;99.90;;;;;;5054794;28;20489;-71
2021/10/29 07:56:54;;;;;;;37.55;19.35;;;6.60;99.90;;;;;;5053352;28;20110;-71
2021/10/29 07:59:22;;;;;;;37.72;19.30;;;6.40;99.90;;;;;;5056889;28;20059;-71
2021/10/29 08:01:50;;;;;;;32.92;18.20;;;6.50;99.90;;;;;;5056784;28;20061;-71
2021/10/29 08:04:21;;;;;;;33.67;19.02;;;6.80;99.90;;;;;;5056514;28;20056;-71
2021/10/29 08:06:50;;;;;;;36.08;19.20;;;6.90;99.90;;;;;;5056631;28;20063;-71
2021/10/29 08:09:18;;;;;;;33.05;19.25;;;6.90;99.90;;;;;;5057226;28;20053;-71
2021/10/29 08:11:45;;;;;;;34.22;18.63;;;6.70;99.90;;;;;;5057639;28;20083;-71
2021/10/29 08:14:12;;;;;;;35.75;18.25;;;6.60;99.90;;;;;;5057251;28;20056;-71
2021/10/29 08:16:40;;;;;;;36.08;18.80;;;6.60;99.90;;;;;;5058133;28;20467;-71
2021/10/29 08:19:07;;;;;;;34.17;18.58;;;6.70;99.90;;;;;;5057005;28;20061;-71
2021/10/29 08:21:35;;;;;;;35.33;18.83;;;6.80;99.90;;;;;;5057328;28;20501;-70
2021/10/29 08:24:02;;;;;;;32.40;17.10;;;6.40;99.90;;;;;;5056960;28;20118;-71
2021/10/29 08:26:29;;;;;;;29.70;17.35;;;6.60;99.90;;;;;;5054865;28;20486;-71
2021/10/29 08:28:56;;;;;;;28.17;15.70;;;6.70;99.90;;;;;;5054926;28;20060;-71
2021/10/29 08:31:23;;;;;;;29.85;16.50;;;6.40;99.90;;;;;;5056356;28;20052;-69
2021/10/29 08:33:51;;;;;;;26.80;15.57;;;6.40;99.90;;;;;;5055810;28;20107;-72
2021/10/29 08:36:20;;;;;;;31.45;15.75;;;6.50;99.90;;;;;;5056688;28;20052;-71
2021/10/29 08:38:49;;;;;;;28.67;15.68;;;6.40;99.90;;;;;;5055976;28;20052;-73
2021/10/29 08:41:16;;;;;;;29.52;15.65;;;6.60;99.90;;;;;;5055790;28;20061;-70
2021/10/29 08:43:43;;;;;;;27.15;15.20;;;6.80;99.90;;;;;;5053365;28;20076;-70
2021/10/29 08:46:10;;;;;;;26.42;15.20;;;6.90;99.90;;;;;;5056324;28;20057;-71
2021/10/29 08:48:39;;;;;;;29.45;16.25;;;6.60;99.90;;;;;;5057164;28;20917;-71
2021/10/29 08:51:06;;;;;;;28.60;15.27;;;6.70;99.90;;;;;;5056478;28;20060;-70
2021/10/29 08:53:33;;;;;;;29.10;16.33;;;6.30;99.90;;;;;;5056197;28;20090;-71
2021/10/29 08:56:04;;;;;;;29.50;16.05;;;6.20;99.90;;;;;;5057084;28;20048;-70
2021/10/29 08:58:34;;;;;;;29.60;15.38;;;6.30;99.90;;;;;;5056735;28;20056;-71
2021/10/29 09:01:05;;;;;;;28.58;16.10;;;6.60;99.90;;;;;;5055409;28;20926;-72
2021/10/29 09:03:41;;;;;;;25.42;14.73;;;6.70;99.90;;;;;;5055285;28;20053;-73
2021/10/29 09:06:23;;;;;;;25.43;14.20;;;7.10;99.90;;;;;;5055676;28;20496;-70
2021/10/29 09:09:04;;;;;;;29.77;15.45;;;7.20;99.90;;;;;;5055573;28;20303;-70
2021/10/29 09:11:49;;;;;;;28.52;15.48;;;7.00;99.90;;;;;;5057530;28;20061;-71
2021/10/29 09:31:27;;;;;;;34.70;17.90;;;7.20;99.90;;;;;;5135531;27;20054;-70
2021/10/29 09:33:57;;;;;;;29.83;17.25;;;7.00;99.90;;;;;;5134689;27;20054;-71
2021/10/29 09:36:30;;;;;;;30.13;18.10;;;7.40;99.90;;;;;;5133852;27;20070;-71
2021/10/29 09:39:00;;;;;;;30.77;17.33;;;7.50;99.90;;;;;;5133199;27;20047;-71
2021/10/29 09:41:28;;;;;;;32.28;17.02;;;7.30;99.90;;;;;;5134054;27;20054;-70
2021/10/29 09:44:04;;;;;;;32.47;18.73;;;7.40;99.90;;;;;;5134357;27;20445;-70
2021/10/29 09:46:47;;;;;;;29.73;17.95;;;7.80;99.90;;;;;;5130374;27;20043;-70
2021/10/29 09:49:18;;;;;;;27.38;17.33;;;8.10;99.90;;;;;;5129781;27;20051;-70
2021/10/29 09:52:05;;;;;;;27.95;16.55;;;8.20;99.90;;;;;;5129200;27;20138;-69
2021/10/29 09:54:42;;;;;;;30.23;17.25;;;8.40;99.90;;;;;;5129352;27;20047;-70
2021/10/29 09:57:09;;;;;;;33.40;19.17;;;8.30;99.90;;;;;;5128591;27;20527;-71
2021/10/29 09:59:37;;;;;;;30.70;17.85;;;8.30;99.90;;;;;;5128951;27;20457;-71
2021/10/29 10:02:05;;;;;;;31.83;19.02;;;8.50;99.90;;;;;;5129186;27;20560;-70
2021/10/29 10:04:33;;;;;;;31.17;19.02;;;8.50;99.90;;;;;;5133489;27;20404;-70
2021/10/29 10:07:02;;;;;;;29.88;18.58;;;8.90;99.90;;;;;;5128136;27;20051;-70
2021/10/29 10:09:30;;;;;;;29.42;18.60;;;9.20;99.90;;;;;;5128893;27;20069;-71
2021/10/29 10:11:58;;;;;;;29.35;18.70;;;9.80;99.90;;;;;;5127931;27;20660;-70
2021/10/29 10:14:26;;;;;;;29.25;17.95;;;10.20;99.90;;;;;;5127956;27;20070;-70
2021/10/29 10:16:54;;;;;;;27.20;17.13;;;10.20;99.90;;;;;;5128612;27;20043;-70
2021/10/29 10:19:21;;;;;;;32.90;17.85;;;10.50;99.90;;;;;;5133651;27;20114;-70
2021/10/29 10:21:53;;;;;;;33.33;18.75;;;10.60;99.90;;;;;;5136350;27;20051;-70
2021/10/29 10:24:26;;;;;;;27.90;18.65;;;12.90;99.90;;;;;;5136517;27;20082;-70
2021/10/29 10:27:24;;;;;;;28.10;18.98;;;12.40;99.90;;;;;;5135042;27;20499;-69
2021/10/29 10:30:05;;;;;;;;;;;12.10;99.90;;;;;;5131244;27;20089;-72
2021/10/29 10:41:19;;;;;;;28.30;19.10;;;16.10;99.90;;;;;;5118939;27;20053;-69
2021/10/29 10:44:18;;;;;;;27.80;19.25;;;18.40;99.90;;;;;;5119411;27;20058;-70
2021/10/29 10:46:48;;;;;;;27.42;18.13;;;20.40;99.90;;;;;;5118512;27;20055;-70
2021/10/29 10:49:20;;;;;;;24.35;17.38;;;19.80;99.90;;;;;;5119398;27;20111;-69
2021/10/29 10:52:02;;;;;;;25.95;17.80;;;20.70;99.90;;;;;;5118712;27;20426;-70
2021/10/29 10:54:34;;;;;;;25.30;18.00;;;19.50;99.90;;;;;;5117892;27;20104;-69
2021/10/29 10:57:13;;;;;;;28.38;17.48;;;20.20;99.90;;;;;;5117362;27;20051;-70
2021/10/29 10:59:58;;;;;;;25.35;18.55;;;21.20;99.90;;;;;;5117713;27;20154;-69
2021/10/29 11:11:13;;;;;;;26.27;18.73;;;21.60;99.90;;;;;;5119508;27;20077;-69
2021/10/29 11:13:56;;;;;;;25.70;18.75;;;21.80;99.90;;;;;;5119098;27;20047;-69
2021/10/29 11:16:31;;;;;;;22.33;17.00;;;20.90;99.90;;;;;;5118574;27;20090;-69
2021/10/29 11:19:06;;;;;;;26.20;18.45;;;21.30;99.90;;;;;;5119635;27;20416;-69
2021/10/29 11:21:37;;;;;;;25.02;18.25;;;22.60;99.90;;;;;;5119688;27;20051;-69
2021/10/29 11:24:06;;;;;;;22.80;17.38;;;22.50;99.90;;;;;;5120204;27;20057;-69
2021/10/29 11:26:39;;;;;;;22.35;17.25;;;23.40;99.90;;;;;;5119605;27;20062;-70
2021/10/29 11:29:09;;;;;;;21.40;16.35;;;23.10;99.20;;;;;;5120650;27;20107;-70
2021/10/29 11:31:38;;;;;;;22.23;17.45;;;21.80;99.60;;;;;;5117539;27;20126;-70
2021/10/29 11:34:12;;;;;;;23.05;16.80;;;21.50;99.90;;;;;;5116261;27;20145;-70
2021/10/29 11:36:40;;;;;;;26.35;17.05;;;23.90;99.90;;;;;;5116877;27;20055;-70
2021/10/29 11:39:09;;;;;;;23.10;17.73;;;24.40;99.90;;;;;;5116879;27;20078;-70
2021/10/29 11:41:38;;;;;;;22.75;18.13;;;24.50;98.80;;;;;;5115880;27;20051;-70
2021/10/29 11:44:08;;;;;;;21.88;16.92;;;24.70;98.60;;;;;;5117763;27;20051;-70
2021/10/29 11:46:36;;;;;;;23.70;18.27;;;23.30;98.00;;;;;;5118660;27;20511;-70
2021/10/29 11:49:06;;;;;;;23.75;17.15;;;22.50;99.50;;;;;;5119480;27;20055;-69
2021/10/29 11:51:34;;;;;;;22.27;17.70;;;20.60;99.90;;;;;;5118870;27;20051;-70
2021/10/29 11:54:10;;;;;;;21.83;17.75;;;22.60;99.90;;;;;;5118786;27;20055;-70
2021/10/29 11:56:41;;;;;;;22.67;17.95;;;24.30;98.60;;;;;;5118633;27;20495;-70
2021/10/29 12:02:02;;;;;;;21.33;17.35;;;23.50;99.30;;;;;;5119831;27;20133;-70
2021/10/29 12:07:17;;;;;;;25.58;18.90;;;23.40;99.40;;;;;;5119112;27;20529;-70
2021/10/29 12:09:45;;;;;;;24.92;18.30;;;22.50;99.90;;;;;;5118968;27;20483;-70
2021/10/29 12:12:13;;;;;;;24.98;17.73;;;23.10;99.20;;;;;;5119901;27;20082;-70
2021/10/29 12:14:45;;;;;;;22.60;18.20;;;23.80;99.90;;;;;;5118903;27;20053;-70
2021/10/29 12:17:17;;;;;;;22.88;17.73;;;23.20;99.60;;;;;;5119769;27;20465;-71
2021/10/29 12:19:46;;;;;;;23.13;19.20;;;23.10;99.60;;;;;;5119298;27;20445;-70
2021/10/29 12:25:09;;;;;;;24.05;17.83;;;22.80;99.90;;;;;;5112387;27;20043;-70
2021/10/29 12:27:38;;;;;;;23.92;18.85;;;23.60;99.30;;;;;;5118835;27;20084;-70
2021/10/29 12:30:24;;;;;;;24.70;18.15;;;23.40;98.60;;;;;;5117598;27;20081;-69
2021/10/29 12:53:04;;;;;;;26.10;19.90;;;22.30;99.90;;;;;;5118853;27;19923;-69
2021/10/29 13:01:32;;;;;;;27.88;21.23;;;21.30;99.90;;;;;;5119338;27;20119;-70
2021/10/29 13:04:02;;;;;;;31.05;23.67;;;20.30;99.90;;;;;;5118781;27;20093;-69
2021/10/29 13:06:32;;;;;;;27.40;21.88;;;19.20;99.90;;;;;;5118610;27;20091;-69
2021/10/29 13:09:00;;;;;;;31.80;23.08;;;20.20;99.90;;;;;;5119405;27;20051;-70
2021/10/29 13:11:33;;;;;;;33.35;23.95;;;20.90;99.90;;;;;;5117411;27;20047;-69
2021/10/29 13:14:02;;;;;;;30.98;23.73;;;20.70;99.90;;;;;;5116116;27;20047;-69
2021/10/29 13:16:30;;;;;;;28.27;22.45;;;20.00;99.90;;;;;;5118565;27;20158;-69
2021/10/29 13:25:13;;;;;;;30.58;23.00;;;17.90;99.90;;;;;;5118148;27;20059;-69
2021/10/29 13:36:12;;;;;;;31.25;24.00;;;16.70;99.90;;;;;;5047420;28;20040;-70
2021/10/29 13:52:26;;;;;;;29.52;20.38;;;15.80;99.90;;;;;;5117713;27;20514;-69
2021/10/29 13:55:04;;;;;;;30.30;21.33;;;15.20;99.90;;;;;;5117873;28;20142;-69
2021/10/29 13:58:03;;;;;;;32.20;22.02;;;14.60;99.90;;;;;;5117351;28;20538;-69
2021/10/29 14:03:46;;;;;;;36.63;22.65;;;14.10;99.90;;;;;;5118303;28;20047;-69
2021/10/29 14:28:20;;;;;;;41.05;26.08;;;12.90;99.90;;;;;;5122270;27;20069;-69
2021/10/29 14:30:54;;;;;;;43.13;26.77;;;12.10;99.90;;;;;;5122093;27;20043;-69
2021/10/29 14:33:24;;;;;;;40.63;24.77;;;11.80;99.90;;;;;;5121948;27;20138;-69
2021/10/29 14:35:54;;;;;;;44.63;26.92;;;11.60;99.90;;;;;;5120028;27;20051;-70
2021/10/29 14:38:29;;;;;;;49.17;27.35;;;11.40;99.90;;;;;;5121312;27;20061;-73
2021/10/29 14:41:01;;;;;;;44.58;27.55;;;11.10;99.90;;;;;;5119925;27;20059;-70
2021/10/29 14:43:33;;;;;;;44.50;27.15;;;11.20;99.90;;;;;;5120457;27;20059;-70
2021/10/29 14:46:08;;;;;;;47.20;28.20;;;11.30;99.90;;;;;;5119212;27;20526;-70
2021/10/29 14:48:45;;;;;;;47.60;28.83;;;11.20;99.90;;;;;;5118389;27;20055;-69
2021/10/29 14:51:48;;;;;;;51.72;28.88;;;10.70;99.90;;;;;;5119303;27;20507;-70
2021/10/29 15:02:53;;;;;;;48.17;28.25;;;10.20;99.90;;;;;;5119079;27;20054;-69
2021/10/29 15:05:35;;;;;;;47.60;29.52;;;10.20;99.90;;;;;;5114855;27;20061;-70
2021/10/29 15:27:41;;;;;;;49.47;27.90;;;9.50;99.90;;;;;;5117407;27;20039;-70
2021/10/29 15:30:12;;;;;;;50.25;28.02;;;9.80;99.90;;;;;;5118375;27;20047;-69
2021/10/29 15:32:52;;;;;;;50.13;29.65;;;9.80;99.90;;;;;;5116836;27;20055;-70
2021/10/29 15:46:36;;;;;;;55.72;30.58;;;9.30;99.90;;;;;;5118154;27;20039;-69
2021/10/29 15:49:08;;;;;;;51.70;30.02;;;9.20;99.90;;;;;;5117281;27;20055;-69
2021/10/29 15:51:37;;;;;;;50.75;30.02;;;9.10;99.90;;;;;;5117933;27;20583;-69
2021/10/29 15:54:06;;;;;;;50.55;29.83;;;9.00;99.90;;;;;;5117160;27;20439;-70
2021/10/29 15:56:36;;;;;;;55.80;31.52;;;9.00;99.90;;;;;;5114976;27;20055;-70
2021/10/29 15:59:22;;;;;;;52.88;29.48;;;8.50;99.90;;;;;;5118229;27;20062;-70
2021/10/29 16:01:53;;;;;;;50.13;29.73;;;8.50;99.90;;;;;;5117538;27;20051;-69
2021/10/29 16:18:04;;;;;;;57.33;31.85;;;8.10;99.90;;;;;;5119565;27;20099;-72
2021/10/29 16:20:34;;;;;;;57.20;31.98;;;8.20;99.90;;;;;;5119640;27;20047;-70
2021/10/29 16:23:02;;;;;;;57.85;32.90;;;8.20;99.90;;;;;;5119591;27;20078;-70
2021/10/29 16:25:32;;;;;;;55.47;32.38;;;8.20;99.90;;;;;;5119686;27;20142;-70
2021/10/29 16:28:02;;;;;;;52.70;30.58;;;8.20;99.90;;;;;;5118391;27;20491;-70
2021/10/29 16:30:30;;;;;;;54.65;30.83;;;8.20;99.90;;;;;;5115988;27;20049;-70
2021/10/29 16:35:44;;;;;;;58.15;30.95;;;7.90;99.90;;;;;;5116082;27;20435;-70